Nags Head, North Carolina
Current Conditions -  °F | °C
As of 10:15 AM on Monday 22 Dec 2014 (Local Time) from KFFA Reporting Station
Moderate Rain Moderate Rain  
Wind Chill: 52°   Ceiling: 200
Heat Index: 52°   Visibility: 1.7mi
Dew Point: 51°   Wind: 5mph
Humidity: 99%   Direction: 10°N
Pressure: 30.09"   Gusts: NA
Location:  35.96°N, 75.62°W
Report Text: KFFA 221515Z AUTO 01004KT 1 3/4SM RA OVC002 11/11 A3009 RMK AO2 P0006 T01090108
Loading
Personal Weather Stations






























Interactive Weather Map New forecast layout! Learn more

10-Day Weather Forecast

Advertisements
Track Severe Weather on mobile